sensor_id;sensor_type;location;lat;lon;timestamp;pressure;altitude;pressure_sealevel;temperature;humidity
7407;BME280;3745;56.964;24.128;2023-05-15T00:02:24;101860.56;;;12.72;100.00
7407;BME280;3745;56.964;24.128;2023-05-15T00:04:49;101853.63;;;12.65;100.00
7407;BME280;3745;56.964;24.128;2023-05-15T00:07:15;101855.28;;;12.63;100.00
7407;BME280;3745;56.964;24.128;2023-05-15T00:09:41;101877.59;;;12.76;100.00
7407;BME280;3745;56.964;24.128;2023-05-15T00:12:06;101875.88;;;12.75;100.00
7407;BME280;3745;56.964;24.128;2023-05-15T00:14:32;101871.53;;;12.69;100.00
7407;BME280;3745;56.964;24.128;2023-05-15T00:16:58;101879.88;;;12.65;100.00
7407;BME280;3745;56.964;24.128;2023-05-15T00:19:23;101880.63;;;12.60;100.00
7407;BME280;3745;56.964;24.128;2023-05-15T00:21:49;101882.28;;;12.58;100.00
7407;BME280;3745;56.964;24.128;2023-05-15T00:24:15;101863.44;;;12.49;100.00
7407;BME280;3745;56.964;24.128;2023-05-15T00:26:40;101825.81;;;12.30;100.00
7407;BME280;3745;56.964;24.128;2023-05-15T00:29:06;101843.13;;;12.49;100.00
7407;BME280;3745;56.964;24.128;2023-05-15T00:31:31;101856.88;;;12.58;100.00
7407;BME280;3745;56.964;24.128;2023-05-15T00:33:57;101863.59;;;12.56;100.00
7407;BME280;3745;56.964;24.128;2023-05-15T00:36:24;101862.63;;;12.50;100.00
7407;BME280;3745;56.964;24.128;2023-05-15T00:38:50;101853.22;;;12.46;100.00
7407;BME280;3745;56.964;24.128;2023-05-15T00:41:17;101855.81;;;12.48;100.00
7407;BME280;3745;56.964;24.128;2023-05-15T00:43:43;101837.78;;;12.37;100.00
7407;BME280;3745;56.964;24.128;2023-05-15T00:46:11;101846.38;;;12.42;100.00
7407;BME280;3745;56.964;24.128;2023-05-15T00:48:37;101858.31;;;12.46;100.00
7407;BME280;3745;56.964;24.128;2023-05-15T00:51:04;101860.03;;;12.47;100.00
7407;BME280;3745;56.964;24.128;2023-05-15T00:53:30;101832.44;;;12.25;100.00
7407;BME280;3745;56.964;24.128;2023-05-15T00:55:58;101854.06;;;12.45;100.00
7407;BME280;3745;56.964;24.128;2023-05-15T00:58:26;101850.66;;;12.45;100.00
7407;BME280;3745;56.964;24.128;2023-05-15T01:00:52;101837.66;;;12.31;100.00
7407;BME280;3745;56.964;24.128;2023-05-15T01:03:17;101823.81;;;12.17;100.00
7407;BME280;3745;56.964;24.128;2023-05-15T01:05:43;101842.66;;;12.28;100.00
7407;BME280;3745;56.964;24.128;2023-05-15T01:08:20;101844.47;;;12.32;100.00
7407;BME280;3745;56.964;24.128;2023-05-15T01:10:48;101831.34;;;12.16;100.00
7407;BME280;3745;56.964;24.128;2023-05-15T01:13:19;101845.94;;;12.24;100.00
7407;BME280;3745;56.964;24.128;2023-05-15T01:15:45;101844.25;;;12.23;100.00
7407;BME280;3745;56.964;24.128;2023-05-15T01:18:11;101835.78;;;12.24;100.00
7407;BME280;3745;56.964;24.128;2023-05-15T01:28:51;101789.25;;;11.88;100.00
7407;BME280;3745;56.964;24.128;2023-05-15T01:31:21;101837.22;;;12.13;100.00
7407;BME280;3745;56.964;24.128;2023-05-15T01:33:53;101807.22;;;11.95;100.00
7407;BME280;3745;56.964;24.128;2023-05-15T01:36:28;101835.50;;;12.12;100.00
7407;BME280;3745;56.964;24.128;2023-05-15T01:39:00;101835.50;;;12.12;100.00
7407;BME280;3745;56.964;24.128;2023-05-15T01:41:50;101835.44;;;12.09;100.00
7407;BME280;3745;56.964;24.128;2023-05-15T01:44:35;101828.66;;;12.08;100.00
7407;BME280;3745;56.964;24.128;2023-05-15T01:47:05;101816.63;;;12.01;100.00
7407;BME280;3745;56.964;24.128;2023-05-15T01:49:31;101830.28;;;12.06;100.00
7407;BME280;3745;56.964;24.128;2023-05-15T01:52:05;101821.63;;;11.98;100.00
7407;BME280;3745;56.964;24.128;2023-05-15T01:54:33;101831.00;;;12.01;100.00
7407;BME280;3745;56.964;24.128;2023-05-15T01:57:00;101813.06;;;11.93;100.00
7407;BME280;3745;56.964;24.128;2023-05-15T01:59:28;101810.47;;;11.91;100.00
7407;BME280;3745;56.964;24.128;2023-05-15T02:01:56;101797.72;;;11.87;100.00
7407;BME280;3745;56.964;24.128;2023-05-15T02:04:23;101825.22;;;12.06;100.00
7407;BME280;3745;56.964;24.128;2023-05-15T02:06:50;101829.41;;;12.04;100.00
7407;BME280;3745;56.964;24.128;2023-05-15T02:09:19;101822.66;;;12.06;100.00
7407;BME280;3745;56.964;24.128;2023-05-15T02:11:46;101813.28;;;12.02;100.00
7407;BME280;3745;56.964;24.128;2023-05-15T02:14:14;101828.66;;;12.08;100.00
7407;BME280;3745;56.964;24.128;2023-05-15T02:16:40;101829.44;;;12.06;100.00
7407;BME280;3745;56.964;24.128;2023-05-15T02:19:06;101818.44;;;12.05;100.00
7407;BME280;3745;56.964;24.128;2023-05-15T02:21:33;101807.22;;;11.95;100.00
7407;BME280;3745;56.964;24.128;2023-05-15T02:23:58;101811.41;;;11.95;100.00
7407;BME280;3745;56.964;24.128;2023-05-15T02:28:54;101820.69;;;11.94;100.00
7407;BME280;3745;56.964;24.128;2023-05-15T02:36:51;101812.22;;;11.92;100.00
7407;BME280;3745;56.964;24.128;2023-05-15T02:39:19;101816.44;;;11.93;100.00
7407;BME280;3745;56.964;24.128;2023-05-15T02:41:48;101793.38;;;11.84;100.00
7407;BME280;3745;56.964;24.128;2023-05-15T02:44:16;101776.34;;;11.77;100.00
7407;BME280;3745;56.964;24.128;2023-05-15T02:46:43;101806.50;;;12.01;100.00
7407;BME280;3745;56.964;24.128;2023-05-15T02:49:09;101798.88;;;12.01;100.00
7407;BME280;3745;56.964;24.128;2023-05-15T02:51:36;101791.19;;;11.98;100.00
7407;BME280;3745;56.964;24.128;2023-05-15T02:54:01;101750.97;;;11.77;100.00
7407;BME280;3745;56.964;24.128;2023-05-15T02:56:28;101785.38;;;12.02;100.00
7407;BME280;3745;56.964;24.128;2023-05-15T02:58:53;101728.03;;;11.73;100.00
7407;BME280;3745;56.964;24.128;2023-05-15T03:01:20;101783.88;;;12.10;100.00
7407;BME280;3745;56.964;24.128;2023-05-15T03:03:46;101771.09;;;12.07;100.00
7407;BME280;3745;56.964;24.128;2023-05-15T03:06:12;101771.25;;;12.13;100.00
7407;BME280;3745;56.964;24.128;2023-05-15T03:08:37;101753.25;;;12.03;100.00
7407;BME280;3745;56.964;24.128;2023-05-15T03:11:03;101743.94;;;12.03;100.00
7407;BME280;3745;56.964;24.128;2023-05-15T03:13:28;101773.25;;;12.26;100.00
7407;BME280;3745;56.964;24.128;2023-05-15T03:15:54;101769.78;;;12.24;100.00
7407;BME280;3745;56.964;24.128;2023-05-15T03:18:20;101742.59;;;12.17;100.00
7407;BME280;3745;56.964;24.128;2023-05-15T03:20:49;101769.22;;;12.36;100.00
7407;BME280;3745;56.964;24.128;2023-05-15T03:23:15;101754.56;;;12.24;100.00
7407;BME280;3745;56.964;24.128;2023-05-15T03:25:40;101759.13;;;12.39;100.00
7407;BME280;3745;56.964;24.128;2023-05-15T03:28:06;101733.56;;;12.30;100.00
7407;BME280;3745;56.964;24.128;2023-05-15T03:30:32;101755.06;;;12.45;100.00
7407;BME280;3745;56.964;24.128;2023-05-15T03:32:57;101751.78;;;12.52;100.00
7407;BME280;3745;56.964;24.128;2023-05-15T03:35:23;101720.25;;;12.41;100.00
7407;BME280;3745;56.964;24.128;2023-05-15T03:37:50;101708.38;;;12.39;100.00
7407;BME280;3745;56.964;24.128;2023-05-15T03:40:15;101752.28;;;12.77;100.00
7407;BME280;3745;56.964;24.128;2023-05-15T03:42:41;101747.25;;;12.80;100.00
7407;BME280;3745;56.964;24.128;2023-05-15T03:45:07;101720.94;;;12.75;100.00
7407;BME280;3745;56.964;24.128;2023-05-15T03:47:33;101744.38;;;13.05;100.00
7407;BME280;3745;56.964;24.128;2023-05-15T03:49:58;101742.00;;;13.13;100.00
7407;BME280;3745;56.964;24.128;2023-05-15T03:52:24;101740.44;;;13.19;100.00
7407;BME280;3745;56.964;24.128;2023-05-15T03:54:50;101708.97;;;13.14;100.00
7407;BME280;3745;56.964;24.128;2023-05-15T03:57:15;101716.75;;;13.23;100.00
7407;BME280;3745;56.964;24.128;2023-05-15T03:59:41;101741.69;;;13.42;100.00
7407;BME280;3745;56.964;24.128;2023-05-15T04:02:06;101722.25;;;13.46;100.00
7407;BME280;3745;56.964;24.128;2023-05-15T04:04:32;101740.28;;;13.60;100.00
7407;BME280;3745;56.964;24.128;2023-05-15T04:06:58;101738.72;;;13.68;100.00
7407;BME280;3745;56.964;24.128;2023-05-15T04:09:23;101742.25;;;13.77;100.00
7407;BME280;3745;56.964;24.128;2023-05-15T04:11:49;101742.34;;;13.85;100.00
7407;BME280;3745;56.964;24.128;2023-05-15T04:14:15;101718.59;;;13.84;100.00
7407;BME280;3745;56.964;24.128;2023-05-15T04:16:40;101737.50;;;14.00;100.00
7407;BME280;3745;56.964;24.128;2023-05-15T04:19:06;101739.34;;;14.10;100.00
7407;BME280;3745;56.964;24.128;2023-05-15T04:21:31;101733.53;;;14.20;100.00
7407;BME280;3745;56.964;24.128;2023-05-15T04:23:57;101679.75;;;13.96;100.00
7407;BME280;3745;56.964;24.128;2023-05-15T04:26:22;101715.75;;;14.23;100.00
7407;BME280;3745;56.964;24.128;2023-05-15T04:28:48;101703.00;;;14.22;100.00
7407;BME280;3745;56.964;24.128;2023-05-15T04:31:14;101729.63;;;14.43;100.00
7407;BME280;3745;56.964;24.128;2023-05-15T04:33:39;101719.47;;;14.46;100.00
7407;BME280;3745;56.964;24.128;2023-05-15T04:36:06;101720.38;;;14.50;100.00
7407;BME280;3745;56.964;24.128;2023-05-15T04:38:31;101723.00;;;14.54;100.00
7407;BME280;3745;56.964;24.128;2023-05-15T04:40:57;101718.09;;;14.73;100.00
7407;BME280;3745;56.964;24.128;2023-05-15T04:43:23;101720.78;;;14.85;100.00
7407;BME280;3745;56.964;24.128;2023-05-15T04:45:48;101731.09;;;14.97;100.00
7407;BME280;3745;56.964;24.128;2023-05-15T04:48:14;101720.19;;;15.10;100.00
7407;BME280;3745;56.964;24.128;2023-05-15T04:50:39;101716.84;;;15.17;100.00
7407;BME280;3745;56.964;24.128;2023-05-15T04:53:05;101719.50;;;15.28;100.00
7407;BME280;3745;56.964;24.128;2023-05-15T04:55:31;101719.63;;;15.44;100.00
7407;BME280;3745;56.964;24.128;2023-05-15T04:57:56;101681.31;;;15.38;100.00
7407;BME280;3745;56.964;24.128;2023-05-15T05:00:22;101712.22;;;15.68;100.00
7407;BME280;3745;56.964;24.128;2023-05-15T05:02:48;101679.88;;;15.64;100.00
7407;BME280;3745;56.964;24.128;2023-05-15T05:05:13;101668.88;;;15.76;100.00
7407;BME280;3745;56.964;24.128;2023-05-15T05:07:39;101664.69;;;15.86;100.00
7407;BME280;3745;56.964;24.128;2023-05-15T05:10:05;101661.34;;;15.96;100.00
7407;BME280;3745;56.964;24.128;2023-05-15T05:12:31;101670.72;;;16.04;100.00
7407;BME280;3745;56.964;24.128;2023-05-15T05:14:57;101700.69;;;16.37;100.00
7407;BME280;3745;56.964;24.128;2023-05-15T05:17:22;101704.19;;;16.54;100.00
7407;BME280;3745;56.964;24.128;2023-05-15T05:19:48;101705.91;;;16.67;100.00
7407;BME280;3745;56.964;24.128;2023-05-15T05:22:13;101654.72;;;16.49;100.00
7407;BME280;3745;56.964;24.128;2023-05-15T05:24:39;101680.44;;;16.89;100.00
7407;BME280;3745;56.964;24.128;2023-05-15T05:27:05;101682.13;;;17.02;100.00
7407;BME280;3745;56.964;24.128;2023-05-15T05:29:30;101680.47;;;17.22;100.00
7407;BME280;3745;56.964;24.128;2023-05-15T05:31:56;101683.84;;;17.39;100.00
7407;BME280;3745;56.964;24.128;2023-05-15T05:34:22;101696.66;;;17.66;100.00
7407;BME280;3745;56.964;24.128;2023-05-15T05:36:48;101677.03;;;17.71;100.00
7407;BME280;3745;56.964;24.128;2023-05-15T05:39:14;101687.22;;;17.99;100.00
7407;BME280;3745;56.964;24.128;2023-05-15T05:41:43;101663.28;;;17.97;100.00
7407;BME280;3745;56.964;24.128;2023-05-15T05:44:09;101690.53;;;18.25;100.00
7407;BME280;3745;56.964;24.128;2023-05-15T05:46:34;101671.72;;;18.32;100.00
7407;BME280;3745;56.964;24.128;2023-05-15T05:49:00;101661.44;;;18.35;100.00
7407;BME280;3745;56.964;24.128;2023-05-15T05:51:26;101642.66;;;18.33;100.00
7407;BME280;3745;56.964;24.128;2023-05-15T05:53:51;101659.63;;;18.61;100.00
7407;BME280;3745;56.964;24.128;2023-05-15T05:56:17;101671.47;;;18.80;100.00
7407;BME280;3745;56.964;24.128;2023-05-15T05:58:42;101639.03;;;18.76;100.00
7407;BME280;3745;56.964;24.128;2023-05-15T06:01:08;101661.00;;;19.08;100.00
7407;BME280;3745;56.964;24.128;2023-05-15T06:03:35;101657.63;;;19.06;100.00
7407;BME280;3745;56.964;24.128;2023-05-15T06:06:01;101665.94;;;19.32;100.00
7407;BME280;3745;56.964;24.128;2023-05-15T06:08:28;101657.28;;;19.48;100.00
7407;BME280;3745;56.964;24.128;2023-05-15T06:10:54;101668.25;;;19.64;100.00
7407;BME280;3745;56.964;24.128;2023-05-15T06:13:19;101653.63;;;19.70;100.00
7407;BME280;3745;56.964;24.128;2023-05-15T06:15:45;101657.78;;;19.83;100.00
7407;BME280;3745;56.964;24.128;2023-05-15T06:18:11;101660.19;;;19.98;98.65
7407;BME280;3745;56.964;24.128;2023-05-15T06:20:37;101647.16;;;20.12;98.21
7407;BME280;3745;56.964;24.128;2023-05-15T06:23:03;101654.66;;;20.32;97.76
7407;BME280;3745;56.964;24.128;2023-05-15T06:25:28;101660.44;;;20.47;97.42
7407;BME280;3745;56.964;24.128;2023-05-15T06:27:54;101661.84;;;20.70;94.02
7407;BME280;3745;56.964;24.128;2023-05-15T06:30:20;101657.38;;;20.82;92.64
7407;BME280;3745;56.964;24.128;2023-05-15T06:32:46;101645.31;;;20.84;90.47
7407;BME280;3745;56.964;24.128;2023-05-15T06:35:11;101648.53;;;20.98;89.94
7407;BME280;3745;56.964;24.128;2023-05-15T06:37:37;101645.69;;;21.17;86.84
7407;BME280;3745;56.964;24.128;2023-05-15T06:40:04;101649.75;;;21.30;85.34
7407;BME280;3745;56.964;24.128;2023-05-15T06:42:30;101615.78;;;21.10;84.08
7407;BME280;3745;56.964;24.128;2023-05-15T06:44:56;101645.22;;;21.44;82.93
7407;BME280;3745;56.964;24.128;2023-05-15T06:47:21;101640.50;;;21.67;80.61
7407;BME280;3745;56.964;24.128;2023-05-15T06:49:47;101635.28;;;21.70;77.99
7407;BME280;3745;56.964;24.128;2023-05-15T06:52:13;101619.06;;;21.65;78.76
7407;BME280;3745;56.964;24.128;2023-05-15T06:54:38;101634.13;;;21.85;76.98
7407;BME280;3745;56.964;24.128;2023-05-15T06:57:06;101612.88;;;21.72;76.35
7407;BME280;3745;56.964;24.128;2023-05-15T06:59:31;101604.22;;;21.76;75.89
7407;BME280;3745;56.964;24.128;2023-05-15T07:02:00;101620.19;;;21.96;76.40
7407;BME280;3745;56.964;24.128;2023-05-15T07:04:26;101604.47;;;22.08;72.25
7407;BME280;3745;56.964;24.128;2023-05-15T07:06:52;101622.06;;;22.30;69.33
7407;BME280;3745;56.964;24.128;2023-05-15T07:09:17;101628.63;;;22.43;68.73
7407;BME280;3745;56.964;24.128;2023-05-15T07:11:43;101620.59;;;22.56;68.35
7407;BME280;3745;56.964;24.128;2023-05-15T07:14:08;101621.56;;;22.51;68.07
7407;BME280;3745;56.964;24.128;2023-05-15T07:16:34;101588.03;;;22.49;66.81
7407;BME280;3745;56.964;24.128;2023-05-15T07:19:00;101600.53;;;22.69;59.31
7407;BME280;3745;56.964;24.128;2023-05-15T07:21:25;101624.13;;;22.89;61.46
7407;BME280;3745;56.964;24.128;2023-05-15T07:23:51;101606.94;;;22.88;61.13
7407;BME280;3745;56.964;24.128;2023-05-15T07:26:16;101618.72;;;22.98;59.02
7407;BME280;3745;56.964;24.128;2023-05-15T07:28:42;101626.16;;;23.10;57.40
7407;BME280;3745;56.964;24.128;2023-05-15T07:31:08;101623.16;;;23.29;56.84
7407;BME280;3745;56.964;24.128;2023-05-15T07:33:33;101602.47;;;23.29;56.27
7407;BME280;3745;56.964;24.128;2023-05-15T07:35:59;101620.91;;;23.49;57.77
7407;BME280;3745;56.964;24.128;2023-05-15T07:38:24;101623.41;;;23.52;58.11
7407;BME280;3745;56.964;24.128;2023-05-15T07:40:50;101620.91;;;23.49;56.79
7407;BME280;3745;56.964;24.128;2023-05-15T07:43:16;101619.03;;;23.54;57.21
7407;BME280;3745;56.964;24.128;2023-05-15T07:45:41;101610.31;;;23.58;54.99
7407;BME280;3745;56.964;24.128;2023-05-15T07:48:19;101621.00;;;23.46;54.43
7407;BME280;3745;56.964;24.128;2023-05-15T07:50:46;101593.72;;;23.33;54.66
7407;BME280;3745;56.964;24.128;2023-05-15T07:53:12;101616.19;;;23.63;54.11
7407;BME280;3745;56.964;24.128;2023-05-15T07:55:39;101600.16;;;23.52;53.88
7407;BME280;3745;56.964;24.128;2023-05-15T07:58:05;101599.81;;;23.64;52.14
7407;BME280;3745;56.964;24.128;2023-05-15T08:00:32;101613.19;;;23.78;51.29
7407;BME280;3745;56.964;24.128;2023-05-15T08:02:58;101609.09;;;24.00;51.42
7407;BME280;3745;56.964;24.128;2023-05-15T08:05:24;101608.81;;;24.09;51.54
7407;BME280;3745;56.964;24.128;2023-05-15T08:07:50;101595.38;;;23.98;51.51
7407;BME280;3745;56.964;24.128;2023-05-15T08:10:16;101601.81;;;24.14;50.84
7407;BME280;3745;56.964;24.128;2023-05-15T08:12:41;101603.03;;;24.31;50.47
7407;BME280;3745;56.964;24.128;2023-05-15T08:15:10;101579.91;;;24.26;49.33
7407;BME280;3745;56.964;24.128;2023-05-15T08:17:36;101599.09;;;24.47;49.36
7407;BME280;3745;56.964;24.128;2023-05-15T08:20:02;101600.41;;;24.60;48.96
7407;BME280;3745;56.964;24.128;2023-05-15T08:22:29;101528.34;;;24.20;47.89
7407;BME280;3745;56.964;24.128;2023-05-15T08:24:55;101595.56;;;24.75;47.78
7407;BME280;3745;56.964;24.128;2023-05-15T08:27:20;101574.50;;;24.60;49.02
7407;BME280;3745;56.964;24.128;2023-05-15T08:29:46;101581.19;;;24.67;49.36
7407;BME280;3745;56.964;24.128;2023-05-15T08:32:11;101545.03;;;24.64;47.13
7407;BME280;3745;56.964;24.128;2023-05-15T08:34:37;101578.91;;;24.84;48.02
7407;BME280;3745;56.964;24.128;2023-05-15T08:37:03;101558.69;;;24.69;47.74
7407;BME280;3745;56.964;24.128;2023-05-15T08:39:29;101556.88;;;24.71;46.85
7407;BME280;3745;56.964;24.128;2023-05-15T08:44:23;101516.28;;;24.71;45.55
7407;BME280;3745;56.964;24.128;2023-05-15T08:46:49;101562.84;;;24.99;44.10
7407;BME280;3745;56.964;24.128;2023-05-15T08:52:06;101508.59;;;24.70;45.00
7407;BME280;3745;56.964;24.128;2023-05-15T08:54:32;101549.72;;;24.79;45.63
7407;BME280;3745;56.964;24.128;2023-05-15T08:56:59;101527.97;;;24.85;44.67
7407;BME280;3745;56.964;24.128;2023-05-15T08:59:25;101533.16;;;25.09;45.27
7407;BME280;3745;56.964;24.128;2023-05-15T09:01:51;101527.09;;;25.33;44.57
7407;BME280;3745;56.964;24.128;2023-05-15T09:04:17;101531.19;;;25.39;44.14
7407;BME280;3745;56.964;24.128;2023-05-15T09:06:46;101534.56;;;25.66;43.81
7407;BME280;3745;56.964;24.128;2023-05-15T09:09:11;101528.91;;;25.78;44.32
7407;BME280;3745;56.964;24.128;2023-05-15T09:11:41;101514.19;;;25.78;42.69
7407;BME280;3745;56.964;24.128;2023-05-15T09:14:08;101539.91;;;26.06;43.66
7407;BME280;3745;56.964;24.128;2023-05-15T09:16:34;101535.31;;;25.91;42.46
7407;BME280;3745;56.964;24.128;2023-05-15T09:19:00;101518.44;;;25.58;42.37
7407;BME280;3745;56.964;24.128;2023-05-15T09:21:28;101538.63;;;25.50;42.78
7407;BME280;3745;56.964;24.128;2023-05-15T09:24:15;101516.50;;;25.40;41.79
7407;BME280;3745;56.964;24.128;2023-05-15T09:26:44;101523.47;;;25.14;43.27
7407;BME280;3745;56.964;24.128;2023-05-15T09:29:10;101523.59;;;25.34;42.73
7407;BME280;3745;56.964;24.128;2023-05-15T09:31:36;101503.16;;;25.50;42.04
7407;BME280;3745;56.964;24.128;2023-05-15T09:34:02;101524.31;;;25.84;40.96
7407;BME280;3745;56.964;24.128;2023-05-15T09:36:30;101518.31;;;25.84;40.82
7407;BME280;3745;56.964;24.128;2023-05-15T09:38:58;101520.56;;;25.93;41.17
7407;BME280;3745;56.964;24.128;2023-05-15T09:41:26;101516.63;;;25.83;42.51
7407;BME280;3745;56.964;24.128;2023-05-15T09:43:53;101480.91;;;25.68;41.56
7407;BME280;3745;56.964;24.128;2023-05-15T09:46:21;101466.47;;;25.38;42.79
7407;BME280;3745;56.964;24.128;2023-05-15T09:48:47;101459.03;;;25.52;41.91
7407;BME280;3745;56.964;24.128;2023-05-15T09:51:15;101452.53;;;25.85;41.72
7407;BME280;3745;56.964;24.128;2023-05-15T09:53:46;101494.44;;;26.19;38.39
7407;BME280;3745;56.964;24.128;2023-05-15T09:56:13;101463.41;;;26.16;38.49
7407;BME280;3745;56.964;24.128;2023-05-15T09:58:51;101472.28;;;26.53;37.18
7407;BME280;3745;56.964;24.128;2023-05-15T10:01:18;101485.81;;;26.81;38.37
7407;BME280;3745;56.964;24.128;2023-05-15T10:03:55;101479.81;;;26.79;36.71
7407;BME280;3745;56.964;24.128;2023-05-15T10:06:21;101468.47;;;26.81;37.52
7407;BME280;3745;56.964;24.128;2023-05-15T10:08:53;101475.28;;;26.64;36.17
7407;BME280;3745;56.964;24.128;2023-05-15T10:11:19;101424.88;;;26.27;36.40
7407;BME280;3745;56.964;24.128;2023-05-15T10:13:48;101474.94;;;26.71;36.12
7407;BME280;3745;56.964;24.128;2023-05-15T10:16:14;101478.00;;;26.40;37.26
7407;BME280;3745;56.964;24.128;2023-05-15T10:18:40;101466.16;;;26.33;37.48
7407;BME280;3745;56.964;24.128;2023-05-15T10:21:08;101462.94;;;26.49;36.35
7407;BME280;3745;56.964;24.128;2023-05-15T10:23:40;101469.97;;;26.67;36.11
7407;BME280;3745;56.964;24.128;2023-05-15T10:28:38;101456.09;;;26.04;37.00
7407;BME280;3745;56.964;24.128;2023-05-15T10:31:04;101462.66;;;25.69;37.52
7407;BME280;3745;56.964;24.128;2023-05-15T10:33:31;101466.19;;;25.68;38.11
7407;BME280;3745;56.964;24.128;2023-05-15T10:36:20;101454.25;;;25.86;36.90
7407;BME280;3745;56.964;24.128;2023-05-15T10:38:50;101469.44;;;25.95;36.76
7407;BME280;3745;56.964;24.128;2023-05-15T10:41:16;101434.13;;;25.91;36.77
7407;BME280;3745;56.964;24.128;2023-05-15T10:43:45;101459.81;;;26.20;37.15
7407;BME280;3745;56.964;24.128;2023-05-15T10:46:14;101433.97;;;26.17;36.04
7407;BME280;3745;56.964;24.128;2023-05-15T10:48:40;101452.22;;;26.56;36.21
7407;BME280;3745;56.964;24.128;2023-05-15T10:51:29;101443.72;;;26.73;35.24
7407;BME280;3745;56.964;24.128;2023-05-15T10:53:56;101452.66;;;27.06;34.19
7407;BME280;3745;56.964;24.128;2023-05-15T10:56:40;101447.72;;;27.00;34.69
7407;BME280;3745;56.964;24.128;2023-05-15T10:59:08;101435.00;;;26.74;35.71
7407;BME280;3745;56.964;24.128;2023-05-15T11:01:36;101417.88;;;26.70;33.98
7407;BME280;3745;56.964;24.128;2023-05-15T11:04:07;101417.88;;;26.90;35.38
7407;BME280;3745;56.964;24.128;2023-05-15T11:06:33;101425.94;;;26.84;33.69
7407;BME280;3745;56.964;24.128;2023-05-15T11:12:03;101418.28;;;26.61;34.02
7407;BME280;3745;56.964;24.128;2023-05-15T11:14:40;101421.78;;;26.60;35.04
7407;BME280;3745;56.964;24.128;2023-05-15T11:17:10;101375.91;;;26.20;35.23
7407;BME280;3745;56.964;24.128;2023-05-15T11:19:54;101419.03;;;26.42;34.66
7407;BME280;3745;56.964;24.128;2023-05-15T11:22:33;101401.66;;;26.45;33.98
7407;BME280;3745;56.964;24.128;2023-05-15T11:25:05;101399.03;;;26.65;33.47
7407;BME280;3745;56.964;24.128;2023-05-15T11:27:40;101421.19;;;27.12;32.75
7407;BME280;3745;56.964;24.128;2023-05-15T11:30:14;101403.47;;;27.20;32.20
7407;BME280;3745;56.964;24.128;2023-05-15T11:35:35;101366.09;;;27.04;30.28
7407;BME280;3745;56.964;24.128;2023-05-15T11:38:04;101404.88;;;27.27;29.90
7407;BME280;3745;56.964;24.128;2023-05-15T11:40:56;101375.25;;;27.13;30.02
7407;BME280;3745;56.964;24.128;2023-05-15T11:43:27;101388.59;;;27.05;29.97
7407;BME280;3745;56.964;24.128;2023-05-15T11:46:12;101388.88;;;26.99;29.39
7407;BME280;3745;56.964;24.128;2023-05-15T11:48:44;101376.63;;;27.01;28.96
7407;BME280;3745;56.964;24.128;2023-05-15T11:53:40;101389.56;;;27.21;28.74
7407;BME280;3745;56.964;24.128;2023-05-15T11:56:12;101396.91;;;27.13;27.46
7407;BME280;3745;56.964;24.128;2023-05-15T11:58:42;101368.38;;;26.73;29.35
7407;BME280;3745;56.964;24.128;2023-05-15T12:01:09;101373.19;;;26.62;28.47
7407;BME280;3745;56.964;24.128;2023-05-15T12:03:35;101381.00;;;26.82;28.48
7407;BME280;3745;56.964;24.128;2023-05-15T12:06:01;101363.06;;;26.56;28.86
7407;BME280;3745;56.964;24.128;2023-05-15T12:08:32;101378.66;;;26.56;28.87
7407;BME280;3745;56.964;24.128;2023-05-15T12:10:59;101370.75;;;26.18;28.06
7407;BME280;3745;56.964;24.128;2023-05-15T12:13:25;101328.28;;;25.79;29.09
7407;BME280;3745;56.964;24.128;2023-05-15T12:15:50;101353.47;;;25.97;28.55
7407;BME280;3745;56.964;24.128;2023-05-15T12:18:16;101354.28;;;26.19;29.69
7407;BME280;3745;56.964;24.128;2023-05-15T12:20:42;101339.47;;;26.21;30.01
7407;BME280;3745;56.964;24.128;2023-05-15T12:23:14;101338.19;;;26.31;29.31
7407;BME280;3745;56.964;24.128;2023-05-15T12:25:40;101351.53;;;26.42;29.62
7407;BME280;3745;56.964;24.128;2023-05-15T12:28:07;101292.50;;;26.07;29.70
7407;BME280;3745;56.964;24.128;2023-05-15T12:30:34;101299.88;;;26.36;29.92
7407;BME280;3745;56.964;24.128;2023-05-15T12:33:05;101285.28;;;26.34;28.17
7407;BME280;3745;56.964;24.128;2023-05-15T12:35:49;101316.06;;;26.62;28.12
7407;BME280;3745;56.964;24.128;2023-05-15T12:38:16;101310.09;;;26.60;27.87
7407;BME280;3745;56.964;24.128;2023-05-15T12:40:45;101287.63;;;26.59;27.63
7407;BME280;3745;56.964;24.128;2023-05-15T12:43:12;101314.50;;;26.76;26.25
7407;BME280;3745;56.964;24.128;2023-05-15T12:45:40;101274.03;;;26.54;25.22
7407;BME280;3745;56.964;24.128;2023-05-15T12:48:06;101293.19;;;26.70;25.04
7407;BME280;3745;56.964;24.128;2023-05-15T12:50:34;101277.47;;;26.73;26.55
7407;BME280;3745;56.964;24.128;2023-05-15T12:53:22;101291.66;;;27.03;25.41
7407;BME280;3745;56.964;24.128;2023-05-15T12:55:49;101259.56;;;26.67;24.98
7407;BME280;3745;56.964;24.128;2023-05-15T12:58:15;101282.94;;;26.67;25.42
7407;BME280;3745;56.964;24.128;2023-05-15T13:00:43;101285.53;;;26.67;26.33
7407;BME280;3745;56.964;24.128;2023-05-15T13:03:13;101284.88;;;26.62;26.27
7407;BME280;3745;56.964;24.128;2023-05-15T13:05:42;101283.09;;;26.64;26.23
7407;BME280;3745;56.964;24.128;2023-05-15T13:08:08;101275.56;;;26.58;25.83
7407;BME280;3745;56.964;24.128;2023-05-15T13:10:38;101247.66;;;26.42;25.80
7407;BME280;3745;56.964;24.128;2023-05-15T13:13:04;101269.16;;;26.65;26.12
7407;BME280;3745;56.964;24.128;2023-05-15T13:15:35;101255.00;;;26.72;26.60
7407;BME280;3745;56.964;24.128;2023-05-15T13:18:07;101234.50;;;26.66;27.01
7407;BME280;3745;56.964;24.128;2023-05-15T13:20:36;101246.81;;;26.81;27.23
7407;BME280;3745;56.964;24.128;2023-05-15T13:23:05;101256.75;;;26.90;27.49
7407;BME280;3745;56.964;24.128;2023-05-15T13:25:31;101249.25;;;26.84;27.42
7407;BME280;3745;56.964;24.128;2023-05-15T13:27:57;101234.06;;;26.75;27.60
7407;BME280;3745;56.964;24.128;2023-05-15T13:30:23;101249.72;;;26.92;28.10